Terminal Aerodrome Forecast
Issued by NWS Newport/Morehead City, NC

Current Version | Previous Version | Text Only | Print | Product List | Glossary Off
Versions: 1 2 3 4 5 6 7 8 9 10 11 12 13 14 15 16 17

586
FTUS42 KMHX 260521
TAFEWN
TAF
KEWN 260521Z 2606/2706 19003KT P6SM SKC
     FM260900 VRB04KT P6SM BKN050
     FM261300 02006KT P6SM BKN200
     FM261800 08005KT P6SM SCT150=

USA.gov is the U.S. government's official web portal to all federal, state and local government web resources and services.